sensor_id;sensor_type;location;lat;lon;timestamp;P1;durP1;ratioP1;P2;durP2;ratioP2
66830;SDS011;53739;44.224;22.528;2023-07-28T09:16:18;5.13;;;3.30;;
66830;SDS011;53739;44.224;22.528;2023-07-28T09:22:23;4.50;;;2.85;;
66830;SDS011;53739;44.224;22.528;2023-07-28T09:25:00;11.40;;;3.05;;
66830;SDS011;53739;44.224;22.528;2023-07-28T10:06:37;4.28;;;2.40;;
66830;SDS011;53739;44.224;22.528;2023-07-28T10:24:53;7.53;;;2.78;;
66830;SDS011;53739;44.224;22.528;2023-07-28T17:33:47;10.32;;;3.60;;
66830;SDS011;53739;44.224;22.528;2023-07-28T17:36:13;7.63;;;3.70;;
66830;SDS011;53739;44.224;22.528;2023-07-28T17:38:45;8.55;;;3.53;;
66830;SDS011;53739;44.224;22.528;2023-07-28T17:41:15;4.72;;;3.30;;
66830;SDS011;53739;44.224;22.528;2023-07-28T17:43:45;7.80;;;3.10;;
66830;SDS011;53739;44.224;22.528;2023-07-28T17:46:36;8.18;;;3.70;;
66830;SDS011;53739;44.224;22.528;2023-07-28T17:49:05;9.95;;;3.45;;
66830;SDS011;53739;44.224;22.528;2023-07-28T17:51:31;6.22;;;3.60;;
66830;SDS011;53739;44.224;22.528;2023-07-28T17:53:58;5.95;;;3.20;;
66830;SDS011;53739;44.224;22.528;2023-07-28T17:56:24;5.40;;;3.20;;
66830;SDS011;53739;44.224;22.528;2023-07-28T17:58:53;10.02;;;4.10;;
66830;SDS011;53739;44.224;22.528;2023-07-28T18:01:19;8.02;;;3.75;;
66830;SDS011;53739;44.224;22.528;2023-07-28T18:03:45;11.45;;;4.05;;
66830;SDS011;53739;44.224;22.528;2023-07-28T18:06:15;5.97;;;4.38;;
66830;SDS011;53739;44.224;22.528;2023-07-28T18:08:41;7.45;;;4.80;;
66830;SDS011;53739;44.224;22.528;2023-07-28T18:11:07;7.75;;;5.13;;
66830;SDS011;53739;44.224;22.528;2023-07-28T18:13:34;11.70;;;4.82;;
66830;SDS011;53739;44.224;22.528;2023-07-28T18:16:00;7.93;;;5.25;;
66830;SDS011;53739;44.224;22.528;2023-07-28T18:18:29;9.35;;;5.03;;
66830;SDS011;53739;44.224;22.528;2023-07-28T18:20:58;7.32;;;4.53;;
66830;SDS011;53739;44.224;22.528;2023-07-28T18:23:24;8.50;;;4.82;;
66830;SDS011;53739;44.224;22.528;2023-07-28T18:25:51;6.07;;;4.25;;
66830;SDS011;53739;44.224;22.528;2023-07-28T18:28:17;10.90;;;4.93;;
66830;SDS011;53739;44.224;22.528;2023-07-28T18:30:43;11.20;;;4.88;;
66830;SDS011;53739;44.224;22.528;2023-07-28T18:33:09;10.80;;;4.90;;
66830;SDS011;53739;44.224;22.528;2023-07-28T18:35:36;7.65;;;5.13;;
66830;SDS011;53739;44.224;22.528;2023-07-28T18:38:02;10.30;;;4.95;;
66830;SDS011;53739;44.224;22.528;2023-07-28T18:40:28;6.65;;;5.03;;
66830;SDS011;53739;44.224;22.528;2023-07-28T18:42:54;10.25;;;5.10;;
66830;SDS011;53739;44.224;22.528;2023-07-28T18:45:20;10.90;;;4.78;;
66830;SDS011;53739;44.224;22.528;2023-07-28T18:47:46;7.97;;;4.85;;
66830;SDS011;53739;44.224;22.528;2023-07-28T18:50:13;8.13;;;4.38;;
66830;SDS011;53739;44.224;22.528;2023-07-28T18:52:39;8.63;;;4.50;;
66830;SDS011;53739;44.224;22.528;2023-07-28T18:55:06;8.25;;;4.47;;
66830;SDS011;53739;44.224;22.528;2023-07-28T18:57:32;10.77;;;5.15;;
66830;SDS011;53739;44.224;22.528;2023-07-28T18:59:59;13.43;;;6.95;;
66830;SDS011;53739;44.224;22.528;2023-07-28T19:02:25;14.77;;;6.10;;
66830;SDS011;53739;44.224;22.528;2023-07-28T19:04:51;9.98;;;5.80;;
66830;SDS011;53739;44.224;22.528;2023-07-28T19:07:17;11.43;;;5.82;;
66830;SDS011;53739;44.224;22.528;2023-07-28T19:09:44;9.88;;;6.53;;
66830;SDS011;53739;44.224;22.528;2023-07-28T19:12:10;10.20;;;5.32;;
66830;SDS011;53739;44.224;22.528;2023-07-28T19:14:36;7.47;;;4.40;;
66830;SDS011;53739;44.224;22.528;2023-07-28T19:17:03;9.25;;;4.43;;
66830;SDS011;53739;44.224;22.528;2023-07-28T19:19:30;8.25;;;4.35;;
66830;SDS011;53739;44.224;22.528;2023-07-28T19:21:57;8.23;;;4.65;;
66830;SDS011;53739;44.224;22.528;2023-07-28T19:24:23;8.93;;;4.35;;
66830;SDS011;53739;44.224;22.528;2023-07-28T19:26:50;7.90;;;4.35;;
66830;SDS011;53739;44.224;22.528;2023-07-28T19:29:16;12.00;;;4.25;;
66830;SDS011;53739;44.224;22.528;2023-07-28T19:31:46;6.20;;;3.85;;
66830;SDS011;53739;44.224;22.528;2023-07-28T19:34:12;10.02;;;4.57;;
66830;SDS011;53739;44.224;22.528;2023-07-28T19:36:38;16.13;;;4.95;;
66830;SDS011;53739;44.224;22.528;2023-07-28T19:39:04;7.85;;;4.43;;
66830;SDS011;53739;44.224;22.528;2023-07-28T19:41:30;9.63;;;4.63;;
66830;SDS011;53739;44.224;22.528;2023-07-28T19:43:57;8.05;;;4.47;;
66830;SDS011;53739;44.224;22.528;2023-07-28T19:46:26;9.23;;;4.20;;
66830;SDS011;53739;44.224;22.528;2023-07-28T19:48:53;12.00;;;5.07;;
66830;SDS011;53739;44.224;22.528;2023-07-28T19:51:19;11.93;;;4.50;;
66830;SDS011;53739;44.224;22.528;2023-07-28T19:53:45;11.20;;;4.43;;
66830;SDS011;53739;44.224;22.528;2023-07-28T19:56:11;8.90;;;4.97;;
66830;SDS011;53739;44.224;22.528;2023-07-28T19:58:37;12.70;;;4.85;;
66830;SDS011;53739;44.224;22.528;2023-07-28T20:01:03;11.63;;;4.43;;
66830;SDS011;53739;44.224;22.528;2023-07-28T20:03:32;14.27;;;5.63;;
66830;SDS011;53739;44.224;22.528;2023-07-28T20:05:58;9.32;;;4.80;;
66830;SDS011;53739;44.224;22.528;2023-07-28T20:08:24;8.45;;;5.00;;
66830;SDS011;53739;44.224;22.528;2023-07-28T20:10:50;8.77;;;4.85;;
66830;SDS011;53739;44.224;22.528;2023-07-28T20:13:16;10.30;;;5.05;;
66830;SDS011;53739;44.224;22.528;2023-07-28T20:15:43;10.05;;;5.22;;
66830;SDS011;53739;44.224;22.528;2023-07-28T20:18:09;11.10;;;4.43;;
66830;SDS011;53739;44.224;22.528;2023-07-28T20:20:35;12.18;;;5.10;;
66830;SDS011;53739;44.224;22.528;2023-07-28T20:23:01;10.70;;;4.88;;
66830;SDS011;53739;44.224;22.528;2023-07-28T20:25:27;10.57;;;4.28;;
66830;SDS011;53739;44.224;22.528;2023-07-28T20:27:57;8.85;;;4.47;;
66830;SDS011;53739;44.224;22.528;2023-07-28T20:30:23;13.20;;;5.13;;
66830;SDS011;53739;44.224;22.528;2023-07-28T20:32:49;8.18;;;5.00;;
66830;SDS011;53739;44.224;22.528;2023-07-28T20:35:15;12.57;;;5.28;;
66830;SDS011;53739;44.224;22.528;2023-07-28T20:37:45;12.18;;;5.05;;
66830;SDS011;53739;44.224;22.528;2023-07-28T20:40:11;8.57;;;5.18;;
66830;SDS011;53739;44.224;22.528;2023-07-28T20:42:38;10.27;;;4.80;;
66830;SDS011;53739;44.224;22.528;2023-07-28T20:45:10;9.38;;;5.80;;
66830;SDS011;53739;44.224;22.528;2023-07-28T20:50:58;7.47;;;4.85;;
66830;SDS011;53739;44.224;22.528;2023-07-28T20:53:24;9.73;;;5.10;;
66830;SDS011;53739;44.224;22.528;2023-07-28T20:55:53;7.50;;;4.97;;
66830;SDS011;53739;44.224;22.528;2023-07-28T20:58:19;11.05;;;5.43;;
66830;SDS011;53739;44.224;22.528;2023-07-28T21:00:45;10.18;;;5.65;;
66830;SDS011;53739;44.224;22.528;2023-07-28T21:09:29;11.23;;;4.85;;
66830;SDS011;53739;44.224;22.528;2023-07-28T21:12:23;7.88;;;4.68;;
66830;SDS011;53739;44.224;22.528;2023-07-28T21:15:08;10.40;;;4.70;;
66830;SDS011;53739;44.224;22.528;2023-07-28T21:36:37;12.00;;;5.50;;
66830;SDS011;53739;44.224;22.528;2023-07-28T21:39:16;7.63;;;5.07;;
66830;SDS011;53739;44.224;22.528;2023-07-28T21:41:42;6.32;;;4.57;;
66830;SDS011;53739;44.224;22.528;2023-07-28T21:44:09;7.82;;;4.60;;
66830;SDS011;53739;44.224;22.528;2023-07-28T21:46:35;7.97;;;4.57;;
66830;SDS011;53739;44.224;22.528;2023-07-28T21:49:02;9.93;;;5.30;;
66830;SDS011;53739;44.224;22.528;2023-07-28T21:51:28;9.52;;;5.28;;
66830;SDS011;53739;44.224;22.528;2023-07-28T21:53:55;8.50;;;5.22;;
66830;SDS011;53739;44.224;22.528;2023-07-28T21:56:22;9.10;;;4.80;;
66830;SDS011;53739;44.224;22.528;2023-07-28T21:58:48;11.88;;;5.03;;
66830;SDS011;53739;44.224;22.528;2023-07-28T22:01:14;7.88;;;4.75;;
66830;SDS011;53739;44.224;22.528;2023-07-28T22:03:40;8.48;;;5.75;;
66830;SDS011;53739;44.224;22.528;2023-07-28T22:06:08;11.23;;;6.07;;
66830;SDS011;53739;44.224;22.528;2023-07-28T22:08:34;9.52;;;6.15;;
66830;SDS011;53739;44.224;22.528;2023-07-28T22:11:00;9.27;;;5.80;;
66830;SDS011;53739;44.224;22.528;2023-07-28T22:13:26;9.05;;;5.38;;
66830;SDS011;53739;44.224;22.528;2023-07-28T22:15:53;10.00;;;6.28;;
66830;SDS011;53739;44.224;22.528;2023-07-28T22:18:19;10.13;;;5.80;;
66830;SDS011;53739;44.224;22.528;2023-07-28T22:20:45;7.82;;;5.60;;
66830;SDS011;53739;44.224;22.528;2023-07-28T22:23:12;8.35;;;5.72;;
66830;SDS011;53739;44.224;22.528;2023-07-28T22:25:42;13.80;;;5.38;;
66830;SDS011;53739;44.224;22.528;2023-07-28T22:28:16;9.43;;;5.13;;
66830;SDS011;53739;44.224;22.528;2023-07-28T22:30:44;13.63;;;5.90;;
66830;SDS011;53739;44.224;22.528;2023-07-28T22:33:11;7.85;;;5.80;;
66830;SDS011;53739;44.224;22.528;2023-07-28T22:35:42;9.07;;;6.38;;
66830;SDS011;53739;44.224;22.528;2023-07-28T22:38:09;11.95;;;6.72;;
66830;SDS011;53739;44.224;22.528;2023-07-28T22:40:35;7.68;;;5.82;;
66830;SDS011;53739;44.224;22.528;2023-07-28T22:43:01;10.13;;;6.38;;
66830;SDS011;53739;44.224;22.528;2023-07-28T22:45:27;10.80;;;6.18;;
66830;SDS011;53739;44.224;22.528;2023-07-28T22:47:54;8.68;;;5.82;;
66830;SDS011;53739;44.224;22.528;2023-07-28T22:50:20;10.70;;;6.00;;
66830;SDS011;53739;44.224;22.528;2023-07-28T22:52:46;9.88;;;6.15;;
66830;SDS011;53739;44.224;22.528;2023-07-28T22:55:12;11.85;;;6.97;;
66830;SDS011;53739;44.224;22.528;2023-07-28T22:57:38;9.82;;;7.47;;
66830;SDS011;53739;44.224;22.528;2023-07-28T23:00:05;11.50;;;7.28;;
66830;SDS011;53739;44.224;22.528;2023-07-28T23:02:35;10.20;;;6.70;;
66830;SDS011;53739;44.224;22.528;2023-07-28T23:05:02;10.13;;;6.72;;
66830;SDS011;53739;44.224;22.528;2023-07-28T23:07:28;16.15;;;7.47;;
66830;SDS011;53739;44.224;22.528;2023-07-28T23:09:54;14.00;;;7.97;;
66830;SDS011;53739;44.224;22.528;2023-07-28T23:12:20;12.73;;;8.30;;
66830;SDS011;53739;44.224;22.528;2023-07-28T23:14:47;12.30;;;8.68;;
66830;SDS011;53739;44.224;22.528;2023-07-28T23:17:13;16.08;;;7.78;;
66830;SDS011;53739;44.224;22.528;2023-07-28T23:19:41;14.55;;;7.13;;
66830;SDS011;53739;44.224;22.528;2023-07-28T23:22:08;10.77;;;6.82;;
66830;SDS011;53739;44.224;22.528;2023-07-28T23:24:34;11.88;;;6.80;;
66830;SDS011;53739;44.224;22.528;2023-07-28T23:27:00;9.30;;;6.55;;
66830;SDS011;53739;44.224;22.528;2023-07-28T23:29:26;8.73;;;6.28;;
66830;SDS011;53739;44.224;22.528;2023-07-28T23:31:53;12.50;;;6.63;;
66830;SDS011;53739;44.224;22.528;2023-07-28T23:34:19;10.35;;;6.43;;
66830;SDS011;53739;44.224;22.528;2023-07-28T23:36:45;8.38;;;6.45;;
66830;SDS011;53739;44.224;22.528;2023-07-28T23:39:11;15.95;;;6.35;;
66830;SDS011;53739;44.224;22.528;2023-07-28T23:41:37;13.07;;;6.45;;
66830;SDS011;53739;44.224;22.528;2023-07-28T23:44:04;10.73;;;6.97;;
66830;SDS011;53739;44.224;22.528;2023-07-28T23:46:30;8.90;;;6.55;;
66830;SDS011;53739;44.224;22.528;2023-07-28T23:48:56;9.80;;;6.88;;
66830;SDS011;53739;44.224;22.528;2023-07-28T23:51:22;11.63;;;6.70;;
66830;SDS011;53739;44.224;22.528;2023-07-28T23:53:56;10.85;;;7.47;;
66830;SDS011;53739;44.224;22.528;2023-07-28T23:56:31;10.30;;;6.80;;
66830;SDS011;53739;44.224;22.528;2023-07-28T23:59:23;7.70;;;6.53;;
